Bonum — CRA5490 — position and weather

sailwx.info

Track history (hours):
 
Tides and Currents Weather Stations Pressure Air Temp Water Temp Dewpoint Dewpoint Depression Visibility Wind Speed Wind Dir Waves Ship Positions

Bonum

Last reported at 2014-Jul-18 19:30 UTC. Time now 2014-Jul-31 01:19 UTC.
Position N 38°19' E 015°28'.
Warning: this ship's position is 12 days out of date.

Length 38 m; draft 3.2 m.

MMSI: 255910770.

Date/timePositionNaut miles runAvg speedWind from/ knotsBaromVisibWave heightAir tempDewpointWater temp
2014-Jul-18 19:30N 38°19' E 015°28'1110.8
2014-Jul-18 18:31N 38°18' E 015°15'5510.8
2014-Jul-18 13:23N 38°16' E 014°04'1011.1
2014-Jul-18 12:31N 38°16' E 013°52'1111.2
2014-Jul-18 11:33N 38°17' E 013°39'1111.2
2014-Jul-18 10:33N 38°17' E 013°24'1110.9
2014-Jul-18 09:33N 38°17' E 013°10'1110.9
2014-Jul-18 08:32N 38°18' E 012°56'44011.2
2014-Jul-16 17:06N 38°48' E 003°35'1710.9
2014-Jul-16 15:32N 38°49' E 003°13'1110.8
2014-Jul-16 14:32N 38°50' E 002°59'1110.8
2014-Jul-16 13:33N 38°50' E 002°46'1110.9
2014-Jul-16 12:30N 38°51' E 002°31'1110.8
2014-Jul-16 11:29N 38°52' E 002°17'1210.9
2014-Jul-16 10:25N 38°53' E 002°02'910.9
2014-Jul-16 09:33N 38°53' E 001°50'1110.6
2014-Jul-16 08:28N 38°54' E 001°35'7 0.2
2014-Jul-14 19:22N 38°55' E 001°27'9 1.2
2014-Jul-14 12:13N 38°46' E 001°26'0 0.0
2014-Jul-14 10:25N 38°46' E 001°26'0 0.0
2014-Jul-14 09:22N 38°46' E 001°26'17 5.7
2014-Jul-14 06:21N 38°60' E 001°12'1 0.8
2014-Jul-14 05:30N 38°59' E 001°13'0 0.0
2014-Jul-14 04:20N 38°59' E 001°13'0 0.0
2014-Jul-13 10:19N 38°59' E 001°13'0 0.0
2014-Jul-13 09:22N 38°59' E 001°13'0 0.0
2014-Jul-13 08:32N 38°59' E 001°13'0 0.0
2014-Jul-13 05:15N 38°59' E 001°13'0 0.0
2014-Jul-13 04:24N 38°59' E 001°13'0 0.0
2014-Jul-12 21:16N 38°59' E 001°13'1 0.1
2014-Jul-12 08:33N 38°60' E 001°13'11 9.8
2014-Jul-12 07:29N 38°50' E 001°17'9 9.7
2014-Jul-12 06:33N 38°46' E 001°27'6 2.1
2014-Jul-12 03:33N 38°41' E 001°32'0 0.0
2014-Jul-12 02:30N 38°41' E 001°32'0 0.0
2014-Jul-12 01:29N 38°41' E 001°32'0 0.0
2014-Jul-12 00:33N 38°41' E 001°32'0 0.0
2014-Jul-11 23:21N 38°41' E 001°32'0 0.0
2014-Jul-11 15:24N 38°41' E 001°32'0 0.0
2014-Jul-11 14:29N 38°41' E 001°32'0 0.0
2014-Jul-11 13:32N 38°41' E 001°32'0 0.0
2014-Jul-11 11:33N 38°41' E 001°32'0 0.0
2014-Jul-11 10:32N 38°41' E 001°32'15 0.8
2014-Jul-10 16:29N 38°55' E 001°27'0 0.0
2014-Jul-10 15:24N 38°55' E 001°27'0 0.0
2014-Jul-10 11:17N 38°55' E 001°27'0 0.0
2014-Jul-09 08:04N 38°55' E 001°27'5 8.4
2014-Jul-09 07:31N 38°50' E 001°26'4210.7
2014-Jul-09 03:33N 38°25' E 000°42'1110.4
2014-Jul-09 02:29N 38°19' E 000°30'5510.4
2014-Jul-08 21:08N 37°43' W 000°24'8 9.7
2014-Jul-08 20:17N 37°36' W 000°29'7 9.2
2014-Jul-08 19:33N 37°32' W 000°36'  
Track history (hours):
 
Tides and Currents Weather Stations Pressure Air Temp Water Temp Dewpoint Dewpoint Depression Visibility Wind Speed Wind Dir Waves Ship Positions

Bonum

Last reported at 2014-Jul-18 19:30 UTC. Time now 2014-Jul-31 01:19 UTC.
Position N 38°19' E 015°28'.
Warning: this ship's position is 12 days out of date.

Length 38 m; draft 3.2 m.

MMSI: 255910770.

Date/timePositionNaut miles runAvg speedWind from/ knotsBaromVisibWave heightAir tempDewpointWater temp
2014-Jul-18 19:30N 38°19' E 015°28'1110.8
2014-Jul-18 18:31N 38°18' E 015°15'5510.8
2014-Jul-18 13:23N 38°16' E 014°04'1011.1
2014-Jul-18 12:31N 38°16' E 013°52'1111.2
2014-Jul-18 11:33N 38°17' E 013°39'1111.2
2014-Jul-18 10:33N 38°17' E 013°24'1110.9
2014-Jul-18 09:33N 38°17' E 013°10'1110.9
2014-Jul-18 08:32N 38°18' E 012°56'44011.2
2014-Jul-16 17:06N 38°48' E 003°35'1710.9
2014-Jul-16 15:32N 38°49' E 003°13'1110.8
2014-Jul-16 14:32N 38°50' E 002°59'1110.8
2014-Jul-16 13:33N 38°50' E 002°46'1110.9
2014-Jul-16 12:30N 38°51' E 002°31'1110.8
2014-Jul-16 11:29N 38°52' E 002°17'1210.9
2014-Jul-16 10:25N 38°53' E 002°02'910.9
2014-Jul-16 09:33N 38°53' E 001°50'1110.6
2014-Jul-16 08:28N 38°54' E 001°35'7 0.2
2014-Jul-14 19:22N 38°55' E 001°27'9 1.2
2014-Jul-14 12:13N 38°46' E 001°26'0 0.0
2014-Jul-14 10:25N 38°46' E 001°26'0 0.0
2014-Jul-14 09:22N 38°46' E 001°26'17 5.7
2014-Jul-14 06:21N 38°60' E 001°12'1 0.8
2014-Jul-14 05:30N 38°59' E 001°13'0 0.0
2014-Jul-14 04:20N 38°59' E 001°13'0 0.0
2014-Jul-13 10:19N 38°59' E 001°13'0 0.0
2014-Jul-13 09:22N 38°59' E 001°13'0 0.0
2014-Jul-13 08:32N 38°59' E 001°13'0 0.0
2014-Jul-13 05:15N 38°59' E 001°13'0 0.0
2014-Jul-13 04:24N 38°59' E 001°13'0 0.0
2014-Jul-12 21:16N 38°59' E 001°13'1 0.1
2014-Jul-12 08:33N 38°60' E 001°13'11 9.8
2014-Jul-12 07:29N 38°50' E 001°17'9 9.7
2014-Jul-12 06:33N 38°46' E 001°27'6 2.1
2014-Jul-12 03:33N 38°41' E 001°32'0 0.0
2014-Jul-12 02:30N 38°41' E 001°32'0 0.0
2014-Jul-12 01:29N 38°41' E 001°32'0 0.0
2014-Jul-12 00:33N 38°41' E 001°32'0 0.0
2014-Jul-11 23:21N 38°41' E 001°32'0 0.0
2014-Jul-11 15:24N 38°41' E 001°32'0 0.0
2014-Jul-11 14:29N 38°41' E 001°32'0 0.0
2014-Jul-11 13:32N 38°41' E 001°32'0 0.0
2014-Jul-11 11:33N 38°41' E 001°32'0 0.0
2014-Jul-11 10:32N 38°41' E 001°32'15 0.8
2014-Jul-10 16:29N 38°55' E 001°27'0 0.0
2014-Jul-10 15:24N 38°55' E 001°27'0 0.0
2014-Jul-10 11:17N 38°55' E 001°27'0 0.0
2014-Jul-09 08:04N 38°55' E 001°27'5 8.4
2014-Jul-09 07:31N 38°50' E 001°26'4210.7
2014-Jul-09 03:33N 38°25' E 000°42'1110.4
2014-Jul-09 02:29N 38°19' E 000°30'5510.4
2014-Jul-08 21:08N 37°43' W 000°24'8 9.7
2014-Jul-08 20:17N 37°36' W 000°29'7 9.2
2014-Jul-08 19:33N 37°32' W 000°36'  

Dump ship's entire track history